sensor_id;sensor_type;location;lat;lon;timestamp;P1;durP1;ratioP1;P2;durP2;ratioP2
12482;SDS011;6306;47.134;15.344;2023-03-14T00:02:11;5.70;;;3.97;;
12482;SDS011;6306;47.134;15.344;2023-03-14T00:04:37;7.57;;;4.50;;
12482;SDS011;6306;47.134;15.344;2023-03-14T00:07:03;7.67;;;3.77;;
12482;SDS011;6306;47.134;15.344;2023-03-14T00:09:29;6.33;;;4.23;;
12482;SDS011;6306;47.134;15.344;2023-03-14T00:11:56;5.60;;;4.87;;
12482;SDS011;6306;47.134;15.344;2023-03-14T00:14:22;6.57;;;3.13;;
12482;SDS011;6306;47.134;15.344;2023-03-14T00:16:48;6.10;;;5.03;;
12482;SDS011;6306;47.134;15.344;2023-03-14T00:19:15;6.00;;;5.03;;
12482;SDS011;6306;47.134;15.344;2023-03-14T00:21:41;7.03;;;4.43;;
12482;SDS011;6306;47.134;15.344;2023-03-14T00:24:08;8.17;;;4.90;;
12482;SDS011;6306;47.134;15.344;2023-03-14T00:26:34;5.93;;;4.90;;
12482;SDS011;6306;47.134;15.344;2023-03-14T00:29:00;6.37;;;4.83;;
12482;SDS011;6306;47.134;15.344;2023-03-14T00:31:26;5.77;;;4.13;;
12482;SDS011;6306;47.134;15.344;2023-03-14T00:33:52;8.53;;;5.37;;
12482;SDS011;6306;47.134;15.344;2023-03-14T00:36:18;7.90;;;4.70;;
12482;SDS011;6306;47.134;15.344;2023-03-14T00:38:45;9.80;;;4.60;;
12482;SDS011;6306;47.134;15.344;2023-03-14T00:41:13;9.17;;;5.10;;
12482;SDS011;6306;47.134;15.344;2023-03-14T00:43:39;7.30;;;4.37;;
12482;SDS011;6306;47.134;15.344;2023-03-14T00:46:05;5.57;;;4.03;;
12482;SDS011;6306;47.134;15.344;2023-03-14T00:48:32;6.30;;;3.27;;
12482;SDS011;6306;47.134;15.344;2023-03-14T00:50:58;4.47;;;3.20;;
12482;SDS011;6306;47.134;15.344;2023-03-14T00:53:24;5.53;;;3.57;;
12482;SDS011;6306;47.134;15.344;2023-03-14T00:55:50;4.40;;;3.57;;
12482;SDS011;6306;47.134;15.344;2023-03-14T00:58:16;5.60;;;3.70;;
12482;SDS011;6306;47.134;15.344;2023-03-14T01:00:43;4.67;;;2.70;;
12482;SDS011;6306;47.134;15.344;2023-03-14T01:03:10;3.30;;;2.90;;
12482;SDS011;6306;47.134;15.344;2023-03-14T01:05:36;5.83;;;3.50;;
12482;SDS011;6306;47.134;15.344;2023-03-14T01:08:02;8.63;;;2.87;;
12482;SDS011;6306;47.134;15.344;2023-03-14T01:10:28;9.80;;;3.27;;
12482;SDS011;6306;47.134;15.344;2023-03-14T01:12:55;6.67;;;4.30;;
12482;SDS011;6306;47.134;15.344;2023-03-14T01:15:21;5.97;;;4.07;;
12482;SDS011;6306;47.134;15.344;2023-03-14T01:17:47;3.63;;;2.33;;
12482;SDS011;6306;47.134;15.344;2023-03-14T01:20:14;2.70;;;2.50;;
12482;SDS011;6306;47.134;15.344;2023-03-14T01:22:40;4.80;;;2.97;;
12482;SDS011;6306;47.134;15.344;2023-03-14T01:25:08;9.63;;;4.03;;
12482;SDS011;6306;47.134;15.344;2023-03-14T01:27:34;3.37;;;2.70;;
12482;SDS011;6306;47.134;15.344;2023-03-14T01:30:00;5.20;;;2.93;;
12482;SDS011;6306;47.134;15.344;2023-03-14T01:32:27;5.33;;;2.80;;
12482;SDS011;6306;47.134;15.344;2023-03-14T01:34:53;5.07;;;3.10;;
12482;SDS011;6306;47.134;15.344;2023-03-14T01:37:19;4.53;;;2.63;;
12482;SDS011;6306;47.134;15.344;2023-03-14T01:39:46;3.83;;;3.50;;
12482;SDS011;6306;47.134;15.344;2023-03-14T01:42:12;3.70;;;2.80;;
12482;SDS011;6306;47.134;15.344;2023-03-14T01:44:48;3.60;;;3.00;;
12482;SDS011;6306;47.134;15.344;2023-03-14T01:47:14;7.50;;;3.97;;
12482;SDS011;6306;47.134;15.344;2023-03-14T01:49:40;4.37;;;2.73;;
12482;SDS011;6306;47.134;15.344;2023-03-14T01:52:07;4.63;;;2.60;;
12482;SDS011;6306;47.134;15.344;2023-03-14T01:54:40;3.43;;;2.90;;
12482;SDS011;6306;47.134;15.344;2023-03-14T01:59:33;8.30;;;3.13;;
12482;SDS011;6306;47.134;15.344;2023-03-14T02:02:00;4.53;;;2.53;;
12482;SDS011;6306;47.134;15.344;2023-03-14T02:04:27;5.40;;;3.83;;
12482;SDS011;6306;47.134;15.344;2023-03-14T02:09:26;4.00;;;2.70;;
12482;SDS011;6306;47.134;15.344;2023-03-14T02:11:52;5.93;;;3.20;;
12482;SDS011;6306;47.134;15.344;2023-03-14T02:14:21;3.80;;;2.57;;
12482;SDS011;6306;47.134;15.344;2023-03-14T02:16:49;4.77;;;2.93;;
12482;SDS011;6306;47.134;15.344;2023-03-14T02:19:17;4.50;;;3.10;;
12482;SDS011;6306;47.134;15.344;2023-03-14T02:21:52;4.27;;;3.03;;
12482;SDS011;6306;47.134;15.344;2023-03-14T02:25:03;4.70;;;3.77;;
12482;SDS011;6306;47.134;15.344;2023-03-14T02:27:09;3.60;;;2.93;;
12482;SDS011;6306;47.134;15.344;2023-03-14T02:29:37;2.93;;;2.23;;
12482;SDS011;6306;47.134;15.344;2023-03-14T02:32:05;3.60;;;2.80;;
12482;SDS011;6306;47.134;15.344;2023-03-14T02:34:31;2.83;;;2.60;;
12482;SDS011;6306;47.134;15.344;2023-03-14T02:36:58;3.00;;;2.80;;
12482;SDS011;6306;47.134;15.344;2023-03-14T02:39:24;7.67;;;2.80;;
12482;SDS011;6306;47.134;15.344;2023-03-14T02:41:53;4.83;;;2.63;;
12482;SDS011;6306;47.134;15.344;2023-03-14T02:44:19;5.10;;;2.20;;
12482;SDS011;6306;47.134;15.344;2023-03-14T02:46:45;2.93;;;2.50;;
12482;SDS011;6306;47.134;15.344;2023-03-14T02:49:12;3.97;;;2.77;;
12482;SDS011;6306;47.134;15.344;2023-03-14T02:51:39;5.03;;;2.87;;
12482;SDS011;6306;47.134;15.344;2023-03-14T02:54:05;2.37;;;2.17;;
12482;SDS011;6306;47.134;15.344;2023-03-14T02:56:32;4.03;;;3.17;;
12482;SDS011;6306;47.134;15.344;2023-03-14T02:58:58;9.63;;;2.30;;
12482;SDS011;6306;47.134;15.344;2023-03-14T03:01:24;6.07;;;3.07;;
12482;SDS011;6306;47.134;15.344;2023-03-14T03:03:50;4.23;;;2.47;;
12482;SDS011;6306;47.134;15.344;2023-03-14T03:06:16;3.53;;;3.00;;
12482;SDS011;6306;47.134;15.344;2023-03-14T03:08:42;5.30;;;3.00;;
12482;SDS011;6306;47.134;15.344;2023-03-14T03:11:08;2.67;;;2.47;;
12482;SDS011;6306;47.134;15.344;2023-03-14T03:13:34;5.00;;;2.87;;
12482;SDS011;6306;47.134;15.344;2023-03-14T03:16:00;7.03;;;2.43;;
12482;SDS011;6306;47.134;15.344;2023-03-14T03:18:26;4.40;;;3.20;;
12482;SDS011;6306;47.134;15.344;2023-03-14T03:20:52;3.37;;;3.07;;
12482;SDS011;6306;47.134;15.344;2023-03-14T03:23:18;6.30;;;2.90;;
12482;SDS011;6306;47.134;15.344;2023-03-14T03:25:48;4.03;;;2.50;;
12482;SDS011;6306;47.134;15.344;2023-03-14T03:28:15;6.70;;;2.43;;
12482;SDS011;6306;47.134;15.344;2023-03-14T03:30:41;5.70;;;2.80;;
12482;SDS011;6306;47.134;15.344;2023-03-14T03:33:07;3.17;;;2.80;;
12482;SDS011;6306;47.134;15.344;2023-03-14T03:35:34;4.50;;;3.23;;
12482;SDS011;6306;47.134;15.344;2023-03-14T03:38:00;4.17;;;3.57;;
12482;SDS011;6306;47.134;15.344;2023-03-14T03:40:26;3.60;;;2.97;;
12482;SDS011;6306;47.134;15.344;2023-03-14T03:42:52;3.63;;;3.10;;
12482;SDS011;6306;47.134;15.344;2023-03-14T03:45:18;8.97;;;4.00;;
12482;SDS011;6306;47.134;15.344;2023-03-14T03:47:44;7.13;;;2.80;;
12482;SDS011;6306;47.134;15.344;2023-03-14T03:50:10;3.80;;;2.73;;
12482;SDS011;6306;47.134;15.344;2023-03-14T03:52:36;2.80;;;2.60;;
12482;SDS011;6306;47.134;15.344;2023-03-14T03:55:02;5.93;;;3.50;;
12482;SDS011;6306;47.134;15.344;2023-03-14T03:57:28;5.27;;;3.37;;
12482;SDS011;6306;47.134;15.344;2023-03-14T03:59:54;5.37;;;3.00;;
12482;SDS011;6306;47.134;15.344;2023-03-14T04:02:20;8.00;;;3.97;;
12482;SDS011;6306;47.134;15.344;2023-03-14T04:04:46;3.60;;;2.93;;
12482;SDS011;6306;47.134;15.344;2023-03-14T04:07:12;3.40;;;2.67;;
12482;SDS011;6306;47.134;15.344;2023-03-14T04:09:39;4.40;;;2.70;;
12482;SDS011;6306;47.134;15.344;2023-03-14T04:12:05;3.83;;;2.43;;
12482;SDS011;6306;47.134;15.344;2023-03-14T04:14:31;4.63;;;2.77;;
12482;SDS011;6306;47.134;15.344;2023-03-14T04:16:57;6.93;;;2.60;;
12482;SDS011;6306;47.134;15.344;2023-03-14T04:19:23;6.50;;;2.83;;
12482;SDS011;6306;47.134;15.344;2023-03-14T04:21:49;4.60;;;3.33;;
12482;SDS011;6306;47.134;15.344;2023-03-14T04:24:15;5.30;;;3.83;;
12482;SDS011;6306;47.134;15.344;2023-03-14T04:26:41;5.67;;;3.77;;
12482;SDS011;6306;47.134;15.344;2023-03-14T04:29:07;7.73;;;3.10;;
12482;SDS011;6306;47.134;15.344;2023-03-14T04:31:34;4.10;;;3.00;;
12482;SDS011;6306;47.134;15.344;2023-03-14T04:34:00;3.23;;;2.33;;
12482;SDS011;6306;47.134;15.344;2023-03-14T04:36:26;4.30;;;3.90;;
12482;SDS011;6306;47.134;15.344;2023-03-14T04:38:52;5.73;;;2.90;;
12482;SDS011;6306;47.134;15.344;2023-03-14T04:41:18;6.17;;;3.07;;
12482;SDS011;6306;47.134;15.344;2023-03-14T04:43:44;5.70;;;3.53;;
12482;SDS011;6306;47.134;15.344;2023-03-14T04:46:10;2.80;;;2.60;;
12482;SDS011;6306;47.134;15.344;2023-03-14T04:48:36;7.33;;;2.87;;
12482;SDS011;6306;47.134;15.344;2023-03-14T04:51:03;7.47;;;2.90;;
12482;SDS011;6306;47.134;15.344;2023-03-14T04:53:29;7.10;;;3.93;;
12482;SDS011;6306;47.134;15.344;2023-03-14T04:55:55;5.27;;;2.87;;
12482;SDS011;6306;47.134;15.344;2023-03-14T04:58:22;5.30;;;4.07;;
12482;SDS011;6306;47.134;15.344;2023-03-14T05:00:49;8.00;;;4.10;;
12482;SDS011;6306;47.134;15.344;2023-03-14T05:03:15;6.03;;;4.00;;
12482;SDS011;6306;47.134;15.344;2023-03-14T05:05:41;3.47;;;3.17;;
12482;SDS011;6306;47.134;15.344;2023-03-14T05:08:07;7.30;;;3.80;;
12482;SDS011;6306;47.134;15.344;2023-03-14T05:10:33;8.47;;;4.10;;
12482;SDS011;6306;47.134;15.344;2023-03-14T05:12:59;4.90;;;4.50;;
12482;SDS011;6306;47.134;15.344;2023-03-14T05:15:25;6.70;;;5.23;;
12482;SDS011;6306;47.134;15.344;2023-03-14T05:17:51;5.10;;;3.90;;
12482;SDS011;6306;47.134;15.344;2023-03-14T05:20:19;5.37;;;3.77;;
12482;SDS011;6306;47.134;15.344;2023-03-14T05:22:45;5.63;;;3.27;;
12482;SDS011;6306;47.134;15.344;2023-03-14T05:25:11;6.07;;;3.77;;
12482;SDS011;6306;47.134;15.344;2023-03-14T05:27:37;10.13;;;5.43;;
12482;SDS011;6306;47.134;15.344;2023-03-14T05:30:04;11.57;;;5.90;;
12482;SDS011;6306;47.134;15.344;2023-03-14T05:32:30;9.33;;;6.70;;
12482;SDS011;6306;47.134;15.344;2023-03-14T05:34:56;9.30;;;5.90;;
12482;SDS011;6306;47.134;15.344;2023-03-14T05:37:24;7.00;;;4.73;;
12482;SDS011;6306;47.134;15.344;2023-03-14T05:39:50;9.00;;;5.30;;
12482;SDS011;6306;47.134;15.344;2023-03-14T05:42:16;6.77;;;3.90;;
12482;SDS011;6306;47.134;15.344;2023-03-14T05:44:42;7.63;;;4.13;;
12482;SDS011;6306;47.134;15.344;2023-03-14T05:47:08;6.17;;;4.20;;
12482;SDS011;6306;47.134;15.344;2023-03-14T05:49:34;8.40;;;4.17;;
12482;SDS011;6306;47.134;15.344;2023-03-14T05:52:00;7.90;;;4.20;;
12482;SDS011;6306;47.134;15.344;2023-03-14T05:54:27;8.60;;;4.40;;
12482;SDS011;6306;47.134;15.344;2023-03-14T05:56:53;10.10;;;4.17;;
12482;SDS011;6306;47.134;15.344;2023-03-14T05:59:19;11.37;;;3.60;;
12482;SDS011;6306;47.134;15.344;2023-03-14T06:01:45;18.10;;;4.60;;
12482;SDS011;6306;47.134;15.344;2023-03-14T06:04:11;11.30;;;4.27;;
12482;SDS011;6306;47.134;15.344;2023-03-14T06:06:37;12.63;;;6.10;;
12482;SDS011;6306;47.134;15.344;2023-03-14T06:09:03;13.20;;;5.00;;
12482;SDS011;6306;47.134;15.344;2023-03-14T06:11:29;8.83;;;4.67;;
12482;SDS011;6306;47.134;15.344;2023-03-14T06:13:55;11.07;;;6.23;;
12482;SDS011;6306;47.134;15.344;2023-03-14T06:16:21;6.37;;;5.03;;
12482;SDS011;6306;47.134;15.344;2023-03-14T06:18:47;13.20;;;6.53;;
12482;SDS011;6306;47.134;15.344;2023-03-14T06:21:14;9.63;;;6.00;;
12482;SDS011;6306;47.134;15.344;2023-03-14T06:23:40;19.80;;;5.30;;
12482;SDS011;6306;47.134;15.344;2023-03-14T06:26:06;8.07;;;5.53;;
12482;SDS011;6306;47.134;15.344;2023-03-14T06:28:32;18.87;;;6.87;;
12482;SDS011;6306;47.134;15.344;2023-03-14T06:30:58;9.23;;;5.70;;
12482;SDS011;6306;47.134;15.344;2023-03-14T06:33:25;12.83;;;6.47;;
12482;SDS011;6306;47.134;15.344;2023-03-14T06:35:51;10.83;;;5.40;;
12482;SDS011;6306;47.134;15.344;2023-03-14T06:38:17;10.27;;;5.30;;
12482;SDS011;6306;47.134;15.344;2023-03-14T06:40:43;13.33;;;6.20;;
12482;SDS011;6306;47.134;15.344;2023-03-14T06:43:09;16.83;;;8.73;;
12482;SDS011;6306;47.134;15.344;2023-03-14T06:45:35;9.70;;;6.53;;
12482;SDS011;6306;47.134;15.344;2023-03-14T06:48:01;17.10;;;6.80;;
12482;SDS011;6306;47.134;15.344;2023-03-14T06:50:27;12.33;;;7.83;;
12482;SDS011;6306;47.134;15.344;2023-03-14T06:52:53;13.00;;;6.83;;
12482;SDS011;6306;47.134;15.344;2023-03-14T06:55:19;10.27;;;4.83;;
12482;SDS011;6306;47.134;15.344;2023-03-14T06:57:46;8.67;;;5.80;;
12482;SDS011;6306;47.134;15.344;2023-03-14T07:00:12;8.17;;;4.57;;
12482;SDS011;6306;47.134;15.344;2023-03-14T07:02:38;10.77;;;5.43;;
12482;SDS011;6306;47.134;15.344;2023-03-14T07:05:05;10.97;;;7.10;;
12482;SDS011;6306;47.134;15.344;2023-03-14T07:07:31;9.33;;;4.80;;
12482;SDS011;6306;47.134;15.344;2023-03-14T07:09:57;11.90;;;5.70;;
12482;SDS011;6306;47.134;15.344;2023-03-14T07:12:23;8.23;;;5.50;;
12482;SDS011;6306;47.134;15.344;2023-03-14T07:14:49;15.90;;;5.23;;
12482;SDS011;6306;47.134;15.344;2023-03-14T07:17:15;16.67;;;5.40;;
12482;SDS011;6306;47.134;15.344;2023-03-14T07:19:41;8.60;;;3.70;;
12482;SDS011;6306;47.134;15.344;2023-03-14T07:22:07;9.87;;;4.60;;
12482;SDS011;6306;47.134;15.344;2023-03-14T07:24:33;8.07;;;4.83;;
12482;SDS011;6306;47.134;15.344;2023-03-14T07:26:59;10.30;;;6.10;;
12482;SDS011;6306;47.134;15.344;2023-03-14T07:29:25;11.93;;;6.93;;
12482;SDS011;6306;47.134;15.344;2023-03-14T07:31:51;13.53;;;5.30;;
12482;SDS011;6306;47.134;15.344;2023-03-14T07:34:17;9.67;;;5.70;;
12482;SDS011;6306;47.134;15.344;2023-03-14T07:36:44;9.23;;;4.97;;
12482;SDS011;6306;47.134;15.344;2023-03-14T07:39:10;20.20;;;5.63;;
12482;SDS011;6306;47.134;15.344;2023-03-14T07:41:36;12.23;;;5.23;;
12482;SDS011;6306;47.134;15.344;2023-03-14T07:44:02;10.53;;;5.13;;
12482;SDS011;6306;47.134;15.344;2023-03-14T07:46:28;14.40;;;5.00;;
12482;SDS011;6306;47.134;15.344;2023-03-14T07:48:54;9.33;;;4.47;;
12482;SDS011;6306;47.134;15.344;2023-03-14T07:51:20;8.40;;;4.93;;
12482;SDS011;6306;47.134;15.344;2023-03-14T07:53:46;5.23;;;4.33;;
12482;SDS011;6306;47.134;15.344;2023-03-14T07:56:12;6.40;;;3.80;;
12482;SDS011;6306;47.134;15.344;2023-03-14T07:58:38;10.93;;;4.40;;
12482;SDS011;6306;47.134;15.344;2023-03-14T08:01:04;7.60;;;4.03;;
12482;SDS011;6306;47.134;15.344;2023-03-14T08:03:30;7.90;;;3.90;;
12482;SDS011;6306;47.134;15.344;2023-03-14T08:05:56;7.73;;;5.57;;
12482;SDS011;6306;47.134;15.344;2023-03-14T08:08:22;6.53;;;4.07;;
12482;SDS011;6306;47.134;15.344;2023-03-14T08:10:48;6.80;;;4.00;;
12482;SDS011;6306;47.134;15.344;2023-03-14T08:13:14;7.17;;;4.43;;
12482;SDS011;6306;47.134;15.344;2023-03-14T08:15:40;7.10;;;3.83;;
12482;SDS011;6306;47.134;15.344;2023-03-14T08:18:06;10.37;;;4.80;;
12482;SDS011;6306;47.134;15.344;2023-03-14T08:20:32;11.53;;;5.40;;
12482;SDS011;6306;47.134;15.344;2023-03-14T08:22:59;6.20;;;4.47;;
12482;SDS011;6306;47.134;15.344;2023-03-14T08:25:25;6.70;;;4.27;;
12482;SDS011;6306;47.134;15.344;2023-03-14T08:27:51;33.57;;;5.03;;
12482;SDS011;6306;47.134;15.344;2023-03-14T08:30:18;6.47;;;3.97;;
12482;SDS011;6306;47.134;15.344;2023-03-14T08:32:44;10.30;;;4.60;;
12482;SDS011;6306;47.134;15.344;2023-03-14T08:35:10;7.37;;;3.90;;
12482;SDS011;6306;47.134;15.344;2023-03-14T08:37:36;9.83;;;4.57;;
12482;SDS011;6306;47.134;15.344;2023-03-14T08:40:03;9.97;;;4.43;;
12482;SDS011;6306;47.134;15.344;2023-03-14T08:42:31;9.77;;;4.70;;
12482;SDS011;6306;47.134;15.344;2023-03-14T08:44:57;4.03;;;3.13;;
12482;SDS011;6306;47.134;15.344;2023-03-14T08:47:23;4.30;;;2.73;;
12482;SDS011;6306;47.134;15.344;2023-03-14T08:49:49;1.93;;;1.73;;
12482;SDS011;6306;47.134;15.344;2023-03-14T08:52:15;6.73;;;2.30;;
12482;SDS011;6306;47.134;15.344;2023-03-14T08:54:43;2.50;;;1.60;;
12482;SDS011;6306;47.134;15.344;2023-03-14T08:57:09;2.07;;;1.87;;
12482;SDS011;6306;47.134;15.344;2023-03-14T08:59:35;9.97;;;3.70;;
12482;SDS011;6306;47.134;15.344;2023-03-14T09:02:02;6.77;;;3.30;;
12482;SDS011;6306;47.134;15.344;2023-03-14T09:04:28;6.77;;;3.80;;
12482;SDS011;6306;47.134;15.344;2023-03-14T09:06:54;5.37;;;3.17;;
12482;SDS011;6306;47.134;15.344;2023-03-14T09:09:23;4.47;;;3.70;;
12482;SDS011;6306;47.134;15.344;2023-03-14T09:11:49;6.73;;;3.93;;
12482;SDS011;6306;47.134;15.344;2023-03-14T09:14:15;7.23;;;3.80;;
12482;SDS011;6306;47.134;15.344;2023-03-14T09:16:41;7.23;;;3.70;;
12482;SDS011;6306;47.134;15.344;2023-03-14T09:19:07;10.53;;;3.60;;
12482;SDS011;6306;47.134;15.344;2023-03-14T09:21:33;4.67;;;2.77;;
12482;SDS011;6306;47.134;15.344;2023-03-14T09:23:59;12.60;;;3.50;;
12482;SDS011;6306;47.134;15.344;2023-03-14T09:26:25;15.67;;;4.00;;
12482;SDS011;6306;47.134;15.344;2023-03-14T09:28:51;8.13;;;3.53;;
12482;SDS011;6306;47.134;15.344;2023-03-14T09:31:17;8.93;;;3.40;;
12482;SDS011;6306;47.134;15.344;2023-03-14T09:33:43;9.40;;;3.80;;
12482;SDS011;6306;47.134;15.344;2023-03-14T09:36:09;10.33;;;2.93;;
12482;SDS011;6306;47.134;15.344;2023-03-14T09:38:36;8.37;;;3.80;;
12482;SDS011;6306;47.134;15.344;2023-03-14T09:41:02;5.63;;;2.90;;
12482;SDS011;6306;47.134;15.344;2023-03-14T09:43:37;12.53;;;3.63;;
12482;SDS011;6306;47.134;15.344;2023-03-14T09:46:04;6.33;;;2.87;;
12482;SDS011;6306;47.134;15.344;2023-03-14T09:48:31;7.47;;;2.50;;
12482;SDS011;6306;47.134;15.344;2023-03-14T09:50:59;10.80;;;3.97;;
12482;SDS011;6306;47.134;15.344;2023-03-14T09:53:28;11.03;;;3.33;;
12482;SDS011;6306;47.134;15.344;2023-03-14T09:55:58;6.60;;;3.00;;
12482;SDS011;6306;47.134;15.344;2023-03-14T09:58:25;6.17;;;3.17;;
12482;SDS011;6306;47.134;15.344;2023-03-14T10:00:52;13.20;;;4.40;;
12482;SDS011;6306;47.134;15.344;2023-03-14T10:03:32;5.43;;;3.20;;
12482;SDS011;6306;47.134;15.344;2023-03-14T10:05:58;7.43;;;3.10;;
12482;SDS011;6306;47.134;15.344;2023-03-14T10:08:25;6.70;;;3.40;;
12482;SDS011;6306;47.134;15.344;2023-03-14T10:10:51;4.60;;;3.27;;
12482;SDS011;6306;47.134;15.344;2023-03-14T10:15:55;8.57;;;4.10;;
12482;SDS011;6306;47.134;15.344;2023-03-14T10:18:24;7.00;;;3.40;;
12482;SDS011;6306;47.134;15.344;2023-03-14T10:21:01;7.13;;;2.83;;
12482;SDS011;6306;47.134;15.344;2023-03-14T10:23:28;4.77;;;2.97;;
12482;SDS011;6306;47.134;15.344;2023-03-14T10:26:14;4.20;;;2.43;;
12482;SDS011;6306;47.134;15.344;2023-03-14T10:28:45;2.27;;;1.60;;
12482;SDS011;6306;47.134;15.344;2023-03-14T10:31:11;2.20;;;1.13;;
12482;SDS011;6306;47.134;15.344;2023-03-14T10:33:37;3.67;;;2.03;;
12482;SDS011;6306;47.134;15.344;2023-03-14T10:36:20;4.00;;;0.63;;
12482;SDS011;6306;47.134;15.344;2023-03-14T10:38:47;10.00;;;1.23;;
12482;SDS011;6306;47.134;15.344;2023-03-14T10:41:22;3.10;;;0.53;;
12482;SDS011;6306;47.134;15.344;2023-03-14T10:43:50;1.90;;;0.40;;
12482;SDS011;6306;47.134;15.344;2023-03-14T10:46:18;0.37;;;0.30;;
12482;SDS011;6306;47.134;15.344;2023-03-14T10:48:44;1.03;;;0.57;;
12482;SDS011;6306;47.134;15.344;2023-03-14T10:51:19;0.93;;;0.50;;
12482;SDS011;6306;47.134;15.344;2023-03-14T10:56:18;4.23;;;0.80;;
12482;SDS011;6306;47.134;15.344;2023-03-14T10:58:46;3.80;;;0.70;;
12482;SDS011;6306;47.134;15.344;2023-03-14T11:03:59;1.90;;;0.40;;
12482;SDS011;6306;47.134;15.344;2023-03-14T11:06:29;7.80;;;0.60;;
12482;SDS011;6306;47.134;15.344;2023-03-14T11:09:07;0.90;;;0.30;;
12482;SDS011;6306;47.134;15.344;2023-03-14T11:11:36;0.70;;;0.50;;
12482;SDS011;6306;47.134;15.344;2023-03-14T11:21:35;0.40;;;0.33;;
12482;SDS011;6306;47.134;15.344;2023-03-14T11:26:32;1.30;;;0.50;;
12482;SDS011;6306;47.134;15.344;2023-03-14T11:29:20;0.50;;;0.30;;
12482;SDS011;6306;47.134;15.344;2023-03-14T11:31:47;0.80;;;0.60;;
12482;SDS011;6306;47.134;15.344;2023-03-14T11:34:17;0.40;;;0.30;;
12482;SDS011;6306;47.134;15.344;2023-03-14T11:36:49;0.40;;;0.30;;
12482;SDS011;6306;47.134;15.344;2023-03-14T11:39:18;1.00;;;0.90;;
12482;SDS011;6306;47.134;15.344;2023-03-14T11:41:49;0.37;;;0.30;;
12482;SDS011;6306;47.134;15.344;2023-03-14T11:44:20;4.00;;;0.43;;
12482;SDS011;6306;47.134;15.344;2023-03-14T11:49:34;0.40;;;0.40;;
12482;SDS011;6306;47.134;15.344;2023-03-14T11:54:52;1.13;;;0.40;;
12482;SDS011;6306;47.134;15.344;2023-03-14T11:57:19;1.17;;;0.83;;
12482;SDS011;6306;47.134;15.344;2023-03-14T12:04:50;0.50;;;0.30;;
12482;SDS011;6306;47.134;15.344;2023-03-14T12:07:21;0.50;;;0.50;;
12482;SDS011;6306;47.134;15.344;2023-03-14T12:09:49;0.47;;;0.30;;
12482;SDS011;6306;47.134;15.344;2023-03-14T12:12:18;4.37;;;0.80;;
12482;SDS011;6306;47.134;15.344;2023-03-14T12:14:52;0.40;;;0.30;;
12482;SDS011;6306;47.134;15.344;2023-03-14T12:17:20;0.47;;;0.47;;
12482;SDS011;6306;47.134;15.344;2023-03-14T12:19:46;0.30;;;0.30;;
12482;SDS011;6306;47.134;15.344;2023-03-14T12:24:40;1.33;;;0.40;;
12482;SDS011;6306;47.134;15.344;2023-03-14T12:27:10;0.30;;;0.30;;
12482;SDS011;6306;47.134;15.344;2023-03-14T12:29:57;0.80;;;0.40;;
12482;SDS011;6306;47.134;15.344;2023-03-14T12:32:24;0.53;;;0.50;;
12482;SDS011;6306;47.134;15.344;2023-03-14T12:34:50;0.77;;;0.40;;
12482;SDS011;6306;47.134;15.344;2023-03-14T12:37:27;1.70;;;0.77;;
12482;SDS011;6306;47.134;15.344;2023-03-14T12:40:06;0.80;;;0.30;;
12482;SDS011;6306;47.134;15.344;2023-03-14T12:42:58;0.40;;;0.30;;
12482;SDS011;6306;47.134;15.344;2023-03-14T12:45:28;0.70;;;0.50;;
12482;SDS011;6306;47.134;15.344;2023-03-14T12:48:03;0.40;;;0.30;;
12482;SDS011;6306;47.134;15.344;2023-03-14T12:50:36;1.80;;;0.70;;
12482;SDS011;6306;47.134;15.344;2023-03-14T12:55:36;0.53;;;0.50;;
12482;SDS011;6306;47.134;15.344;2023-03-14T13:00:37;0.40;;;0.30;;
12482;SDS011;6306;47.134;15.344;2023-03-14T13:03:20;1.27;;;0.63;;
12482;SDS011;6306;47.134;15.344;2023-03-14T13:05:56;0.47;;;0.40;;
12482;SDS011;6306;47.134;15.344;2023-03-14T13:08:42;0.60;;;0.50;;
12482;SDS011;6306;47.134;15.344;2023-03-14T13:11:14;0.97;;;0.40;;
12482;SDS011;6306;47.134;15.344;2023-03-14T13:13:42;2.93;;;0.67;;
12482;SDS011;6306;47.134;15.344;2023-03-14T13:16:12;0.70;;;0.47;;
12482;SDS011;6306;47.134;15.344;2023-03-14T13:18:41;3.50;;;0.60;;
12482;SDS011;6306;47.134;15.344;2023-03-14T13:21:17;0.67;;;0.40;;
12482;SDS011;6306;47.134;15.344;2023-03-14T13:24:00;0.60;;;0.40;;
12482;SDS011;6306;47.134;15.344;2023-03-14T13:26:42;0.43;;;0.37;;
12482;SDS011;6306;47.134;15.344;2023-03-14T13:29:16;0.70;;;0.53;;
12482;SDS011;6306;47.134;15.344;2023-03-14T13:31:49;0.80;;;0.50;;
12482;SDS011;6306;47.134;15.344;2023-03-14T13:34:15;2.37;;;1.13;;
12482;SDS011;6306;47.134;15.344;2023-03-14T13:36:42;0.90;;;0.57;;
12482;SDS011;6306;47.134;15.344;2023-03-14T13:39:19;0.87;;;0.50;;
12482;SDS011;6306;47.134;15.344;2023-03-14T13:41:47;2.00;;;0.70;;
12482;SDS011;6306;47.134;15.344;2023-03-14T13:44:15;2.00;;;0.60;;
12482;SDS011;6306;47.134;15.344;2023-03-14T13:46:42;0.57;;;0.50;;
12482;SDS011;6306;47.134;15.344;2023-03-14T13:49:21;0.90;;;0.80;;
12482;SDS011;6306;47.134;15.344;2023-03-14T13:51:48;0.73;;;0.43;;
12482;SDS011;6306;47.134;15.344;2023-03-14T13:54:15;1.50;;;0.80;;
12482;SDS011;6306;47.134;15.344;2023-03-14T13:56:41;0.73;;;0.50;;
12482;SDS011;6306;47.134;15.344;2023-03-14T14:02:13;0.90;;;0.40;;
12482;SDS011;6306;47.134;15.344;2023-03-14T14:04:39;0.70;;;0.70;;
12482;SDS011;6306;47.134;15.344;2023-03-14T14:07:15;1.63;;;0.50;;
12482;SDS011;6306;47.134;15.344;2023-03-14T14:09:44;0.70;;;0.47;;
12482;SDS011;6306;47.134;15.344;2023-03-14T14:12:13;0.60;;;0.53;;
12482;SDS011;6306;47.134;15.344;2023-03-14T14:15:14;0.80;;;0.73;;
12482;SDS011;6306;47.134;15.344;2023-03-14T14:17:38;1.07;;;0.60;;
12482;SDS011;6306;47.134;15.344;2023-03-14T14:20:05;0.40;;;0.30;;
12482;SDS011;6306;47.134;15.344;2023-03-14T14:22:33;1.40;;;0.60;;
12482;SDS011;6306;47.134;15.344;2023-03-14T14:24:59;0.50;;;0.40;;
12482;SDS011;6306;47.134;15.344;2023-03-14T14:27:33;0.60;;;0.50;;
12482;SDS011;6306;47.134;15.344;2023-03-14T14:30:04;0.77;;;0.60;;
12482;SDS011;6306;47.134;15.344;2023-03-14T14:32:34;1.80;;;0.50;;
12482;SDS011;6306;47.134;15.344;2023-03-14T14:35:00;0.93;;;0.50;;
12482;SDS011;6306;47.134;15.344;2023-03-14T14:37:28;2.20;;;0.70;;
12482;SDS011;6306;47.134;15.344;2023-03-14T14:39:56;5.77;;;0.70;;
12482;SDS011;6306;47.134;15.344;2023-03-14T14:42:24;2.60;;;1.40;;
12482;SDS011;6306;47.134;15.344;2023-03-14T14:44:51;1.97;;;0.80;;
12482;SDS011;6306;47.134;15.344;2023-03-14T14:47:18;1.17;;;0.67;;
12482;SDS011;6306;47.134;15.344;2023-03-14T14:49:46;0.80;;;0.60;;
12482;SDS011;6306;47.134;15.344;2023-03-14T14:52:17;2.70;;;0.90;;
12482;SDS011;6306;47.134;15.344;2023-03-14T14:54:47;0.87;;;0.57;;
12482;SDS011;6306;47.134;15.344;2023-03-14T14:57:19;0.60;;;0.50;;
12482;SDS011;6306;47.134;15.344;2023-03-14T14:59:47;2.40;;;0.70;;
12482;SDS011;6306;47.134;15.344;2023-03-14T15:02:35;4.20;;;0.53;;
12482;SDS011;6306;47.134;15.344;2023-03-14T15:05:00;0.80;;;0.57;;
12482;SDS011;6306;47.134;15.344;2023-03-14T15:07:26;2.27;;;0.80;;
12482;SDS011;6306;47.134;15.344;2023-03-14T15:09:52;2.80;;;1.73;;
12482;SDS011;6306;47.134;15.344;2023-03-14T15:12:18;0.50;;;0.40;;
12482;SDS011;6306;47.134;15.344;2023-03-14T15:14:45;1.63;;;0.80;;
12482;SDS011;6306;47.134;15.344;2023-03-14T15:17:11;0.93;;;0.50;;
12482;SDS011;6306;47.134;15.344;2023-03-14T15:19:37;1.33;;;0.40;;
12482;SDS011;6306;47.134;15.344;2023-03-14T15:22:04;1.90;;;1.00;;
12482;SDS011;6306;47.134;15.344;2023-03-14T15:24:31;2.00;;;0.70;;
12482;SDS011;6306;47.134;15.344;2023-03-14T15:26:57;4.30;;;0.63;;
12482;SDS011;6306;47.134;15.344;2023-03-14T15:29:23;0.50;;;0.50;;
12482;SDS011;6306;47.134;15.344;2023-03-14T15:31:49;0.47;;;0.47;;
12482;SDS011;6306;47.134;15.344;2023-03-14T15:34:15;0.80;;;0.60;;